sensor_id;sensor_type;location;lat;lon;timestamp;temperature;humidity
32187;DHT22;18686;53.084;8.872;2022-07-29T00:01:17;13.60;99.90
32187;DHT22;18686;53.084;8.872;2022-07-29T00:03:47;13.60;99.90
32187;DHT22;18686;53.084;8.872;2022-07-29T00:06:15;13.60;99.90
32187;DHT22;18686;53.084;8.872;2022-07-29T00:08:44;13.60;99.90
32187;DHT22;18686;53.084;8.872;2022-07-29T00:11:12;13.60;99.90
32187;DHT22;18686;53.084;8.872;2022-07-29T00:13:40;13.50;99.90
32187;DHT22;18686;53.084;8.872;2022-07-29T00:16:13;13.50;99.90
32187;DHT22;18686;53.084;8.872;2022-07-29T00:18:41;13.50;99.90
32187;DHT22;18686;53.084;8.872;2022-07-29T00:21:11;13.50;99.90
32187;DHT22;18686;53.084;8.872;2022-07-29T00:23:39;13.50;99.90
32187;DHT22;18686;53.084;8.872;2022-07-29T00:26:07;13.40;99.90
32187;DHT22;18686;53.084;8.872;2022-07-29T00:28:35;13.40;99.90
32187;DHT22;18686;53.084;8.872;2022-07-29T00:31:03;13.30;99.90
32187;DHT22;18686;53.084;8.872;2022-07-29T00:33:32;13.30;99.90
32187;DHT22;18686;53.084;8.872;2022-07-29T00:36:00;13.30;99.90
32187;DHT22;18686;53.084;8.872;2022-07-29T00:38:28;13.30;99.90
32187;DHT22;18686;53.084;8.872;2022-07-29T00:40:57;13.30;99.90
32187;DHT22;18686;53.084;8.872;2022-07-29T00:43:25;13.30;99.90
32187;DHT22;18686;53.084;8.872;2022-07-29T00:46:13;13.30;99.90
32187;DHT22;18686;53.084;8.872;2022-07-29T00:48:41;13.20;99.90
32187;DHT22;18686;53.084;8.872;2022-07-29T00:51:09;13.20;99.90
32187;DHT22;18686;53.084;8.872;2022-07-29T00:53:39;13.20;99.90
32187;DHT22;18686;53.084;8.872;2022-07-29T00:56:07;13.20;99.90
32187;DHT22;18686;53.084;8.872;2022-07-29T00:58:35;13.20;99.90
32187;DHT22;18686;53.084;8.872;2022-07-29T01:01:03;13.20;99.90
32187;DHT22;18686;53.084;8.872;2022-07-29T01:03:32;13.20;99.90
32187;DHT22;18686;53.084;8.872;2022-07-29T01:06:00;13.10;99.90
32187;DHT22;18686;53.084;8.872;2022-07-29T01:08:28;13.20;99.90
32187;DHT22;18686;53.084;8.872;2022-07-29T01:10:59;13.20;99.90
32187;DHT22;18686;53.084;8.872;2022-07-29T01:13:27;13.20;99.90
32187;DHT22;18686;53.084;8.872;2022-07-29T01:16:01;13.20;99.90
32187;DHT22;18686;53.084;8.872;2022-07-29T01:18:33;13.20;99.90
32187;DHT22;18686;53.084;8.872;2022-07-29T01:21:30;13.20;99.90
32187;DHT22;18686;53.084;8.872;2022-07-29T01:24:19;13.20;99.90
32187;DHT22;18686;53.084;8.872;2022-07-29T01:26:58;13.20;99.90
32187;DHT22;18686;53.084;8.872;2022-07-29T01:29:32;13.20;99.90
32187;DHT22;18686;53.084;8.872;2022-07-29T01:32:08;13.20;99.90
32187;DHT22;18686;53.084;8.872;2022-07-29T01:34:58;13.20;99.90
32187;DHT22;18686;53.084;8.872;2022-07-29T01:37:39;13.20;99.90
32187;DHT22;18686;53.084;8.872;2022-07-29T01:40:18;13.20;99.90
32187;DHT22;18686;53.084;8.872;2022-07-29T01:42:50;13.20;99.90
32187;DHT22;18686;53.084;8.872;2022-07-29T01:45:24;13.20;99.90
32187;DHT22;18686;53.084;8.872;2022-07-29T01:47:58;13.30;99.90
32187;DHT22;18686;53.084;8.872;2022-07-29T01:50:31;13.30;99.90
32187;DHT22;18686;53.084;8.872;2022-07-29T01:53:04;13.30;99.90
32187;DHT22;18686;53.084;8.872;2022-07-29T01:55:36;13.30;99.90
32187;DHT22;18686;53.084;8.872;2022-07-29T01:58:07;13.30;99.90
32187;DHT22;18686;53.084;8.872;2022-07-29T02:00:38;13.30;99.90
32187;DHT22;18686;53.084;8.872;2022-07-29T02:03:12;13.40;99.90
32187;DHT22;18686;53.084;8.872;2022-07-29T02:05:42;13.40;99.90
32187;DHT22;18686;53.084;8.872;2022-07-29T02:08:13;13.30;99.90
32187;DHT22;18686;53.084;8.872;2022-07-29T02:10:42;13.30;99.90
32187;DHT22;18686;53.084;8.872;2022-07-29T02:13:13;13.40;99.90
32187;DHT22;18686;53.084;8.872;2022-07-29T02:15:44;13.40;99.90
32187;DHT22;18686;53.084;8.872;2022-07-29T02:18:16;13.40;99.90
32187;DHT22;18686;53.084;8.872;2022-07-29T02:20:50;13.40;99.90
32187;DHT22;18686;53.084;8.872;2022-07-29T02:23:21;13.40;99.90
32187;DHT22;18686;53.084;8.872;2022-07-29T02:25:53;13.40;99.90
32187;DHT22;18686;53.084;8.872;2022-07-29T02:28:30;13.40;99.90
32187;DHT22;18686;53.084;8.872;2022-07-29T02:31:02;13.40;99.90
32187;DHT22;18686;53.084;8.872;2022-07-29T02:33:31;13.40;99.90
32187;DHT22;18686;53.084;8.872;2022-07-29T02:36:02;13.40;99.90
32187;DHT22;18686;53.084;8.872;2022-07-29T02:38:30;13.40;99.90
32187;DHT22;18686;53.084;8.872;2022-07-29T02:41:20;13.40;99.90
32187;DHT22;18686;53.084;8.872;2022-07-29T02:43:55;13.40;99.90
32187;DHT22;18686;53.084;8.872;2022-07-29T02:46:28;13.50;99.90
32187;DHT22;18686;53.084;8.872;2022-07-29T02:49:02;13.50;99.90
32187;DHT22;18686;53.084;8.872;2022-07-29T02:51:40;13.50;99.90
32187;DHT22;18686;53.084;8.872;2022-07-29T02:54:14;13.50;99.90
32187;DHT22;18686;53.084;8.872;2022-07-29T02:56:48;13.50;99.90
32187;DHT22;18686;53.084;8.872;2022-07-29T02:59:21;13.50;99.90
32187;DHT22;18686;53.084;8.872;2022-07-29T03:01:55;13.50;99.90
32187;DHT22;18686;53.084;8.872;2022-07-29T03:04:24;13.50;99.90
32187;DHT22;18686;53.084;8.872;2022-07-29T03:06:58;13.60;99.90
32187;DHT22;18686;53.084;8.872;2022-07-29T03:09:27;13.60;99.90
32187;DHT22;18686;53.084;8.872;2022-07-29T03:11:57;13.60;99.90
32187;DHT22;18686;53.084;8.872;2022-07-29T03:14:26;13.60;99.90
32187;DHT22;18686;53.084;8.872;2022-07-29T03:16:56;13.60;99.90
32187;DHT22;18686;53.084;8.872;2022-07-29T03:19:26;13.60;99.90
32187;DHT22;18686;53.084;8.872;2022-07-29T03:21:56;13.60;99.90
32187;DHT22;18686;53.084;8.872;2022-07-29T03:24:26;13.60;99.90
32187;DHT22;18686;53.084;8.872;2022-07-29T03:26:55;13.60;99.90
32187;DHT22;18686;53.084;8.872;2022-07-29T03:29:24;13.60;99.90
32187;DHT22;18686;53.084;8.872;2022-07-29T03:32:03;13.60;99.90
32187;DHT22;18686;53.084;8.872;2022-07-29T03:34:35;13.70;99.90
32187;DHT22;18686;53.084;8.872;2022-07-29T03:37:04;13.70;99.90
32187;DHT22;18686;53.084;8.872;2022-07-29T03:39:38;13.70;99.90
32187;DHT22;18686;53.084;8.872;2022-07-29T03:42:10;13.70;99.90
32187;DHT22;18686;53.084;8.872;2022-07-29T03:44:41;13.70;99.90
32187;DHT22;18686;53.084;8.872;2022-07-29T03:47:13;13.80;99.90
32187;DHT22;18686;53.084;8.872;2022-07-29T03:49:42;13.80;99.90
32187;DHT22;18686;53.084;8.872;2022-07-29T03:52:12;13.80;99.90
32187;DHT22;18686;53.084;8.872;2022-07-29T03:54:41;13.80;99.90
32187;DHT22;18686;53.084;8.872;2022-07-29T03:57:10;13.80;99.90
32187;DHT22;18686;53.084;8.872;2022-07-29T03:59:39;13.80;99.90
32187;DHT22;18686;53.084;8.872;2022-07-29T04:02:11;13.80;99.90
32187;DHT22;18686;53.084;8.872;2022-07-29T04:04:41;13.80;99.90
32187;DHT22;18686;53.084;8.872;2022-07-29T04:07:12;13.80;99.90
32187;DHT22;18686;53.084;8.872;2022-07-29T04:09:40;13.80;99.80
32187;DHT22;18686;53.084;8.872;2022-07-29T04:12:09;13.90;99.80
32187;DHT22;18686;53.084;8.872;2022-07-29T04:14:37;13.90;99.90
32187;DHT22;18686;53.084;8.872;2022-07-29T04:17:06;14.00;99.90
32187;DHT22;18686;53.084;8.872;2022-07-29T04:19:36;14.00;99.90
32187;DHT22;18686;53.084;8.872;2022-07-29T04:22:04;14.10;99.80
32187;DHT22;18686;53.084;8.872;2022-07-29T04:24:32;14.20;99.60
32187;DHT22;18686;53.084;8.872;2022-07-29T04:27:00;14.30;99.50
32187;DHT22;18686;53.084;8.872;2022-07-29T04:29:29;14.30;99.30
32187;DHT22;18686;53.084;8.872;2022-07-29T04:31:58;14.40;99.10
32187;DHT22;18686;53.084;8.872;2022-07-29T04:34:26;14.40;99.30
32187;DHT22;18686;53.084;8.872;2022-07-29T04:36:55;14.50;98.80
32187;DHT22;18686;53.084;8.872;2022-07-29T04:39:24;14.60;98.40
32187;DHT22;18686;53.084;8.872;2022-07-29T04:41:56;14.60;98.10
32187;DHT22;18686;53.084;8.872;2022-07-29T04:44:24;14.60;97.90
32187;DHT22;18686;53.084;8.872;2022-07-29T04:46:56;14.70;97.80
32187;DHT22;18686;53.084;8.872;2022-07-29T04:49:24;14.70;97.70
32187;DHT22;18686;53.084;8.872;2022-07-29T04:51:53;14.70;97.50
32187;DHT22;18686;53.084;8.872;2022-07-29T04:54:22;14.80;97.40
32187;DHT22;18686;53.084;8.872;2022-07-29T04:56:58;14.80;97.20
32187;DHT22;18686;53.084;8.872;2022-07-29T04:59:27;14.90;97.10
32187;DHT22;18686;53.084;8.872;2022-07-29T05:01:55;14.90;96.90
32187;DHT22;18686;53.084;8.872;2022-07-29T05:04:24;15.00;96.80
32187;DHT22;18686;53.084;8.872;2022-07-29T05:06:52;15.00;96.80
32187;DHT22;18686;53.084;8.872;2022-07-29T05:09:21;15.10;96.90
32187;DHT22;18686;53.084;8.872;2022-07-29T05:11:50;15.10;96.70
32187;DHT22;18686;53.084;8.872;2022-07-29T05:14:18;15.20;96.40
32187;DHT22;18686;53.084;8.872;2022-07-29T05:16:47;15.40;96.10
32187;DHT22;18686;53.084;8.872;2022-07-29T05:19:17;15.40;95.80
32187;DHT22;18686;53.084;8.872;2022-07-29T05:21:45;15.60;95.40
32187;DHT22;18686;53.084;8.872;2022-07-29T05:24:14;15.70;95.20
32187;DHT22;18686;53.084;8.872;2022-07-29T05:26:44;15.80;95.00
32187;DHT22;18686;53.084;8.872;2022-07-29T05:29:13;15.90;94.60
32187;DHT22;18686;53.084;8.872;2022-07-29T05:32:01;16.10;94.10
32187;DHT22;18686;53.084;8.872;2022-07-29T05:34:29;16.20;93.80
32187;DHT22;18686;53.084;8.872;2022-07-29T05:36:57;16.20;93.60
32187;DHT22;18686;53.084;8.872;2022-07-29T05:39:25;16.30;93.30
32187;DHT22;18686;53.084;8.872;2022-07-29T05:42:15;16.30;93.10
32187;DHT22;18686;53.084;8.872;2022-07-29T05:44:43;16.40;93.00
32187;DHT22;18686;53.084;8.872;2022-07-29T05:47:11;16.50;92.50
32187;DHT22;18686;53.084;8.872;2022-07-29T05:49:39;16.50;92.30
32187;DHT22;18686;53.084;8.872;2022-07-29T05:52:08;16.50;92.00
32187;DHT22;18686;53.084;8.872;2022-07-29T05:54:36;16.50;91.90
32187;DHT22;18686;53.084;8.872;2022-07-29T05:57:05;16.60;91.90
32187;DHT22;18686;53.084;8.872;2022-07-29T05:59:36;16.60;91.70
32187;DHT22;18686;53.084;8.872;2022-07-29T06:02:05;16.70;91.60
32187;DHT22;18686;53.084;8.872;2022-07-29T06:04:33;16.80;91.20
32187;DHT22;18686;53.084;8.872;2022-07-29T06:07:02;16.90;91.00
32187;DHT22;18686;53.084;8.872;2022-07-29T06:09:30;17.00;90.70
32187;DHT22;18686;53.084;8.872;2022-07-29T06:12:02;17.00;90.60
32187;DHT22;18686;53.084;8.872;2022-07-29T06:14:30;17.10;90.50
32187;DHT22;18686;53.084;8.872;2022-07-29T06:17:00;17.20;89.70
32187;DHT22;18686;53.084;8.872;2022-07-29T06:19:29;17.20;90.00
32187;DHT22;18686;53.084;8.872;2022-07-29T06:21:57;17.20;89.70
32187;DHT22;18686;53.084;8.872;2022-07-29T06:24:25;17.30;89.20
32187;DHT22;18686;53.084;8.872;2022-07-29T06:26:54;17.30;88.60
32187;DHT22;18686;53.084;8.872;2022-07-29T06:29:22;17.40;88.50
32187;DHT22;18686;53.084;8.872;2022-07-29T06:31:51;17.40;88.40
32187;DHT22;18686;53.084;8.872;2022-07-29T06:34:20;17.60;87.50
32187;DHT22;18686;53.084;8.872;2022-07-29T06:36:48;17.60;87.20
32187;DHT22;18686;53.084;8.872;2022-07-29T06:39:20;17.70;86.80
32187;DHT22;18686;53.084;8.872;2022-07-29T06:41:48;17.90;85.50
32187;DHT22;18686;53.084;8.872;2022-07-29T06:44:17;18.00;85.30
32187;DHT22;18686;53.084;8.872;2022-07-29T06:46:46;18.10;84.40
32187;DHT22;18686;53.084;8.872;2022-07-29T06:49:16;18.30;83.10
32187;DHT22;18686;53.084;8.872;2022-07-29T06:51:45;18.50;82.20
32187;DHT22;18686;53.084;8.872;2022-07-29T06:54:13;18.70;81.50
32187;DHT22;18686;53.084;8.872;2022-07-29T06:56:42;18.80;80.00
32187;DHT22;18686;53.084;8.872;2022-07-29T06:59:11;19.00;79.50
32187;DHT22;18686;53.084;8.872;2022-07-29T07:01:41;19.30;77.30
32187;DHT22;18686;53.084;8.872;2022-07-29T07:04:10;19.50;75.70
32187;DHT22;18686;53.084;8.872;2022-07-29T07:06:40;19.80;74.30
32187;DHT22;18686;53.084;8.872;2022-07-29T07:09:09;20.00;72.80
32187;DHT22;18686;53.084;8.872;2022-07-29T07:11:38;20.50;71.30
32187;DHT22;18686;53.084;8.872;2022-07-29T07:14:06;20.90;69.80
32187;DHT22;18686;53.084;8.872;2022-07-29T07:16:34;21.50;66.40
32187;DHT22;18686;53.084;8.872;2022-07-29T07:19:02;22.00;64.80
32187;DHT22;18686;53.084;8.872;2022-07-29T07:21:32;23.00;61.90
32187;DHT22;18686;53.084;8.872;2022-07-29T07:24:01;24.50;58.50
32187;DHT22;18686;53.084;8.872;2022-07-29T07:26:31;26.20;50.90
32187;DHT22;18686;53.084;8.872;2022-07-29T07:28:59;27.70;48.70
32187;DHT22;18686;53.084;8.872;2022-07-29T07:31:28;29.10;45.60
32187;DHT22;18686;53.084;8.872;2022-07-29T07:33:56;30.10;41.80
32187;DHT22;18686;53.084;8.872;2022-07-29T07:36:25;31.50;40.80
32187;DHT22;18686;53.084;8.872;2022-07-29T07:38:53;32.80;37.00
32187;DHT22;18686;53.084;8.872;2022-07-29T07:41:21;33.80;36.90
32187;DHT22;18686;53.084;8.872;2022-07-29T07:43:51;34.10;34.10
32187;DHT22;18686;53.084;8.872;2022-07-29T07:46:19;35.00;33.50
32187;DHT22;18686;53.084;8.872;2022-07-29T07:48:47;36.40;32.70
32187;DHT22;18686;53.084;8.872;2022-07-29T07:51:15;37.60;31.60
32187;DHT22;18686;53.084;8.872;2022-07-29T07:53:44;38.40;30.10
32187;DHT22;18686;53.084;8.872;2022-07-29T07:56:16;38.30;29.50
32187;DHT22;18686;53.084;8.872;2022-07-29T07:58:44;37.20;29.60
32187;DHT22;18686;53.084;8.872;2022-07-29T08:01:17;36.10;30.00
32187;DHT22;18686;53.084;8.872;2022-07-29T08:03:48;34.90;30.60
32187;DHT22;18686;53.084;8.872;2022-07-29T08:06:16;33.80;31.50
32187;DHT22;18686;53.084;8.872;2022-07-29T08:08:44;33.20;32.60
32187;DHT22;18686;53.084;8.872;2022-07-29T08:11:12;32.60;32.90
32187;DHT22;18686;53.084;8.872;2022-07-29T08:13:41;31.90;33.60
32187;DHT22;18686;53.084;8.872;2022-07-29T08:16:09;31.40;34.50
32187;DHT22;18686;53.084;8.872;2022-07-29T08:18:44;31.80;35.20
32187;DHT22;18686;53.084;8.872;2022-07-29T08:21:13;33.00;34.30
32187;DHT22;18686;53.084;8.872;2022-07-29T08:23:43;33.30;33.10
32187;DHT22;18686;53.084;8.872;2022-07-29T08:26:26;33.30;33.30
32187;DHT22;18686;53.084;8.872;2022-07-29T08:28:55;35.00;33.60
32187;DHT22;18686;53.084;8.872;2022-07-29T08:31:23;37.50;31.40
32187;DHT22;18686;53.084;8.872;2022-07-29T08:33:52;40.00;29.60
32187;DHT22;18686;53.084;8.872;2022-07-29T08:36:22;42.40;28.60
32187;DHT22;18686;53.084;8.872;2022-07-29T08:38:51;44.30;27.40
32187;DHT22;18686;53.084;8.872;2022-07-29T08:41:19;44.50;26.20
32187;DHT22;18686;53.084;8.872;2022-07-29T08:43:48;44.10;26.10
32187;DHT22;18686;53.084;8.872;2022-07-29T08:46:18;43.30;26.60
32187;DHT22;18686;53.084;8.872;2022-07-29T08:48:47;42.40;26.20
32187;DHT22;18686;53.084;8.872;2022-07-29T08:51:18;42.10;26.60
32187;DHT22;18686;53.084;8.872;2022-07-29T08:53:48;42.40;26.60
32187;DHT22;18686;53.084;8.872;2022-07-29T08:56:18;43.10;26.60
32187;DHT22;18686;53.084;8.872;2022-07-29T08:58:47;43.90;26.20
32187;DHT22;18686;53.084;8.872;2022-07-29T09:01:22;44.90;25.80
32187;DHT22;18686;53.084;8.872;2022-07-29T09:04:11;45.80;25.10
32187;DHT22;18686;53.084;8.872;2022-07-29T09:06:43;46.80;25.20
32187;DHT22;18686;53.084;8.872;2022-07-29T09:09:12;48.10;24.50
32187;DHT22;18686;53.084;8.872;2022-07-29T09:11:41;48.40;24.00
32187;DHT22;18686;53.084;8.872;2022-07-29T09:14:11;48.70;24.10
32187;DHT22;18686;53.084;8.872;2022-07-29T09:16:47;49.20;24.10
32187;DHT22;18686;53.084;8.872;2022-07-29T09:19:24;49.50;24.00
32187;DHT22;18686;53.084;8.872;2022-07-29T09:21:55;49.90;23.60
32187;DHT22;18686;53.084;8.872;2022-07-29T09:24:43;50.60;23.40
32187;DHT22;18686;53.084;8.872;2022-07-29T09:27:19;51.30;23.20
32187;DHT22;18686;53.084;8.872;2022-07-29T09:29:55;51.40;22.70
32187;DHT22;18686;53.084;8.872;2022-07-29T09:32:24;51.20;23.10
32187;DHT22;18686;53.084;8.872;2022-07-29T09:35:14;51.00;22.70
32187;DHT22;18686;53.084;8.872;2022-07-29T09:37:45;50.30;23.00
32187;DHT22;18686;53.084;8.872;2022-07-29T09:40:15;49.00;23.10
32187;DHT22;18686;53.084;8.872;2022-07-29T09:42:43;47.70;23.50
32187;DHT22;18686;53.084;8.872;2022-07-29T09:45:12;46.70;23.70
32187;DHT22;18686;53.084;8.872;2022-07-29T09:47:43;45.90;24.10
32187;DHT22;18686;53.084;8.872;2022-07-29T09:50:13;45.80;24.20
32187;DHT22;18686;53.084;8.872;2022-07-29T09:52:48;45.40;24.20
32187;DHT22;18686;53.084;8.872;2022-07-29T09:55:17;45.00;24.30
32187;DHT22;18686;53.084;8.872;2022-07-29T09:57:46;44.30;24.90
32187;DHT22;18686;53.084;8.872;2022-07-29T10:00:16;43.40;24.60
32187;DHT22;18686;53.084;8.872;2022-07-29T10:02:46;42.40;25.10
32187;DHT22;18686;53.084;8.872;2022-07-29T10:05:20;41.70;25.40
32187;DHT22;18686;53.084;8.872;2022-07-29T10:07:51;41.20;25.60
32187;DHT22;18686;53.084;8.872;2022-07-29T10:10:26;41.20;25.80
32187;DHT22;18686;53.084;8.872;2022-07-29T10:12:55;40.90;25.80
32187;DHT22;18686;53.084;8.872;2022-07-29T10:15:32;40.70;25.90
32187;DHT22;18686;53.084;8.872;2022-07-29T10:18:04;40.40;25.90
32187;DHT22;18686;53.084;8.872;2022-07-29T10:20:33;40.60;26.00
32187;DHT22;18686;53.084;8.872;2022-07-29T10:23:03;40.70;25.80
32187;DHT22;18686;53.084;8.872;2022-07-29T10:25:31;40.40;26.00
32187;DHT22;18686;53.084;8.872;2022-07-29T10:28:00;40.10;26.10
32187;DHT22;18686;53.084;8.872;2022-07-29T10:30:28;39.50;26.30
32187;DHT22;18686;53.084;8.872;2022-07-29T10:33:15;39.00;26.50
32187;DHT22;18686;53.084;8.872;2022-07-29T10:36:05;38.20;26.90
32187;DHT22;18686;53.084;8.872;2022-07-29T10:38:52;37.30;27.20
32187;DHT22;18686;53.084;8.872;2022-07-29T10:41:43;36.20;27.90
32187;DHT22;18686;53.084;8.872;2022-07-29T10:44:17;35.50;28.40
32187;DHT22;18686;53.084;8.872;2022-07-29T10:46:50;35.30;28.80
32187;DHT22;18686;53.084;8.872;2022-07-29T10:49:20;35.20;29.30
32187;DHT22;18686;53.084;8.872;2022-07-29T10:51:53;35.70;28.60
32187;DHT22;18686;53.084;8.872;2022-07-29T10:54:42;36.30;28.40
32187;DHT22;18686;53.084;8.872;2022-07-29T10:57:23;37.00;28.20
32187;DHT22;18686;53.084;8.872;2022-07-29T11:00:30;38.10;27.40
32187;DHT22;18686;53.084;8.872;2022-07-29T11:02:59;40.30;27.10
32187;DHT22;18686;53.084;8.872;2022-07-29T11:05:53;42.20;25.70
32187;DHT22;18686;53.084;8.872;2022-07-29T11:08:23;44.70;25.10
32187;DHT22;18686;53.084;8.872;2022-07-29T11:14:15;49.40;23.40
32187;DHT22;18686;53.084;8.872;2022-07-29T11:17:03;51.90;23.20
32187;DHT22;18686;53.084;8.872;2022-07-29T11:19:34;53.30;22.10
32187;DHT22;18686;53.084;8.872;2022-07-29T11:22:08;54.20;21.80
32187;DHT22;18686;53.084;8.872;2022-07-29T11:24:42;53.40;21.30
32187;DHT22;18686;53.084;8.872;2022-07-29T11:27:31;52.10;21.70
32187;DHT22;18686;53.084;8.872;2022-07-29T11:30:08;50.30;21.90
32187;DHT22;18686;53.084;8.872;2022-07-29T11:32:42;49.90;22.20
32187;DHT22;18686;53.084;8.872;2022-07-29T11:35:30;49.50;21.70
32187;DHT22;18686;53.084;8.872;2022-07-29T11:38:23;48.20;22.40
32187;DHT22;18686;53.084;8.872;2022-07-29T11:41:21;48.30;22.40
32187;DHT22;18686;53.084;8.872;2022-07-29T11:43:52;48.30;22.20
32187;DHT22;18686;53.084;8.872;2022-07-29T11:46:46;47.60;22.60
32187;DHT22;18686;53.084;8.872;2022-07-29T11:49:19;47.40;22.80
32187;DHT22;18686;53.084;8.872;2022-07-29T11:52:08;46.80;22.90
32187;DHT22;18686;53.084;8.872;2022-07-29T11:54:41;46.00;22.90
32187;DHT22;18686;53.084;8.872;2022-07-29T11:57:30;45.50;23.20
32187;DHT22;18686;53.084;8.872;2022-07-29T12:00:05;45.20;23.40
32187;DHT22;18686;53.084;8.872;2022-07-29T12:02:40;45.30;23.60
32187;DHT22;18686;53.084;8.872;2022-07-29T12:05:15;45.10;23.60
32187;DHT22;18686;53.084;8.872;2022-07-29T12:08:15;44.60;23.70
32187;DHT22;18686;53.084;8.872;2022-07-29T12:10:46;43.40;23.80
32187;DHT22;18686;53.084;8.872;2022-07-29T12:13:16;42.20;24.20
32187;DHT22;18686;53.084;8.872;2022-07-29T12:15:52;41.20;24.70
32187;DHT22;18686;53.084;8.872;2022-07-29T12:18:22;40.00;25.00
32187;DHT22;18686;53.084;8.872;2022-07-29T12:20:56;39.10;25.50
32187;DHT22;18686;53.084;8.872;2022-07-29T12:23:29;37.90;25.70
32187;DHT22;18686;53.084;8.872;2022-07-29T12:26:03;36.90;26.10
32187;DHT22;18686;53.084;8.872;2022-07-29T12:28:37;36.20;26.60
32187;DHT22;18686;53.084;8.872;2022-07-29T12:31:11;35.70;27.10
32187;DHT22;18686;53.084;8.872;2022-07-29T12:34:02;35.40;27.30
32187;DHT22;18686;53.084;8.872;2022-07-29T12:36:30;35.30;27.60
32187;DHT22;18686;53.084;8.872;2022-07-29T12:38:58;35.30;27.80
32187;DHT22;18686;53.084;8.872;2022-07-29T12:41:27;35.20;27.70
32187;DHT22;18686;53.084;8.872;2022-07-29T12:43:56;35.10;28.00
32187;DHT22;18686;53.084;8.872;2022-07-29T12:46:24;35.00;28.10
32187;DHT22;18686;53.084;8.872;2022-07-29T12:48:53;34.60;27.90
32187;DHT22;18686;53.084;8.872;2022-07-29T12:51:30;34.20;28.30
32187;DHT22;18686;53.084;8.872;2022-07-29T12:54:04;33.60;28.60
32187;DHT22;18686;53.084;8.872;2022-07-29T12:56:34;33.30;28.90
32187;DHT22;18686;53.084;8.872;2022-07-29T12:59:13;33.10;29.00
32187;DHT22;18686;53.084;8.872;2022-07-29T13:01:41;32.90;29.30
32187;DHT22;18686;53.084;8.872;2022-07-29T13:04:09;32.90;29.60
32187;DHT22;18686;53.084;8.872;2022-07-29T13:06:40;32.80;29.70
32187;DHT22;18686;53.084;8.872;2022-07-29T13:09:18;32.60;29.70
32187;DHT22;18686;53.084;8.872;2022-07-29T13:11:49;32.40;30.00
32187;DHT22;18686;53.084;8.872;2022-07-29T13:14:31;32.10;30.00
32187;DHT22;18686;53.084;8.872;2022-07-29T13:17:00;31.90;30.40
32187;DHT22;18686;53.084;8.872;2022-07-29T13:19:36;31.90;30.90
32187;DHT22;18686;53.084;8.872;2022-07-29T13:22:06;31.90;31.00
32187;DHT22;18686;53.084;8.872;2022-07-29T13:24:45;31.80;31.20
32187;DHT22;18686;53.084;8.872;2022-07-29T13:27:14;31.80;31.40
32187;DHT22;18686;53.084;8.872;2022-07-29T13:29:43;31.50;32.20
32187;DHT22;18686;53.084;8.872;2022-07-29T13:32:12;31.30;31.70
32187;DHT22;18686;53.084;8.872;2022-07-29T13:34:40;31.20;31.70
32187;DHT22;18686;53.084;8.872;2022-07-29T13:37:10;31.00;31.90
32187;DHT22;18686;53.084;8.872;2022-07-29T13:39:38;30.80;32.00
32187;DHT22;18686;53.084;8.872;2022-07-29T13:42:07;30.60;32.00
32187;DHT22;18686;53.084;8.872;2022-07-29T13:44:36;30.50;32.20
32187;DHT22;18686;53.084;8.872;2022-07-29T13:47:05;30.50;32.40
32187;DHT22;18686;53.084;8.872;2022-07-29T13:49:33;30.50;33.00
32187;DHT22;18686;53.084;8.872;2022-07-29T13:52:02;30.50;33.40
32187;DHT22;18686;53.084;8.872;2022-07-29T13:54:35;30.40;33.60
32187;DHT22;18686;53.084;8.872;2022-07-29T13:57:08;30.30;33.20
32187;DHT22;18686;53.084;8.872;2022-07-29T13:59:37;30.20;33.20
32187;DHT22;18686;53.084;8.872;2022-07-29T14:02:06;30.00;33.50
32187;DHT22;18686;53.084;8.872;2022-07-29T14:04:34;29.80;33.60
32187;DHT22;18686;53.084;8.872;2022-07-29T14:07:05;29.60;33.90
32187;DHT22;18686;53.084;8.872;2022-07-29T14:09:35;29.50;34.40
32187;DHT22;18686;53.084;8.872;2022-07-29T14:12:08;29.40;34.50
32187;DHT22;18686;53.084;8.872;2022-07-29T14:14:36;29.40;35.20
32187;DHT22;18686;53.084;8.872;2022-07-29T14:17:04;29.50;35.50
32187;DHT22;18686;53.084;8.872;2022-07-29T14:19:34;29.60;35.00
32187;DHT22;18686;53.084;8.872;2022-07-29T14:22:05;29.70;34.70
32187;DHT22;18686;53.084;8.872;2022-07-29T14:24:36;29.90;34.70
32187;DHT22;18686;53.084;8.872;2022-07-29T14:27:05;30.20;34.90
32187;DHT22;18686;53.084;8.872;2022-07-29T14:29:34;30.40;34.90
32187;DHT22;18686;53.084;8.872;2022-07-29T14:32:05;30.50;34.80
32187;DHT22;18686;53.084;8.872;2022-07-29T14:34:34;30.60;34.40
32187;DHT22;18686;53.084;8.872;2022-07-29T14:37:02;30.60;34.40
32187;DHT22;18686;53.084;8.872;2022-07-29T14:39:33;30.50;34.50
32187;DHT22;18686;53.084;8.872;2022-07-29T14:42:10;30.40;34.80
32187;DHT22;18686;53.084;8.872;2022-07-29T14:44:39;30.30;34.80
32187;DHT22;18686;53.084;8.872;2022-07-29T14:47:08;30.20;34.80
32187;DHT22;18686;53.084;8.872;2022-07-29T14:49:37;30.10;34.70
32187;DHT22;18686;53.084;8.872;2022-07-29T14:52:05;30.00;34.90
32187;DHT22;18686;53.084;8.872;2022-07-29T14:54:33;29.90;34.90
32187;DHT22;18686;53.084;8.872;2022-07-29T14:57:01;29.80;35.00
32187;DHT22;18686;53.084;8.872;2022-07-29T14:59:30;29.60;35.30
32187;DHT22;18686;53.084;8.872;2022-07-29T15:01:59;29.20;35.50
32187;DHT22;18686;53.084;8.872;2022-07-29T15:04:28;28.80;36.10
32187;DHT22;18686;53.084;8.872;2022-07-29T15:06:56;28.40;36.90
32187;DHT22;18686;53.084;8.872;2022-07-29T15:09:25;28.10;36.60
32187;DHT22;18686;53.084;8.872;2022-07-29T15:11:53;27.70;36.90
32187;DHT22;18686;53.084;8.872;2022-07-29T15:14:21;27.30;37.30
32187;DHT22;18686;53.084;8.872;2022-07-29T15:16:51;27.00;37.80
32187;DHT22;18686;53.084;8.872;2022-07-29T15:19:19;26.70;38.20
32187;DHT22;18686;53.084;8.872;2022-07-29T15:21:47;26.40;38.50
32187;DHT22;18686;53.084;8.872;2022-07-29T15:24:16;26.20;38.80
32187;DHT22;18686;53.084;8.872;2022-07-29T15:26:44;26.10;39.20
32187;DHT22;18686;53.084;8.872;2022-07-29T15:29:13;25.90;39.50
32187;DHT22;18686;53.084;8.872;2022-07-29T15:31:41;25.70;40.00
32187;DHT22;18686;53.084;8.872;2022-07-29T15:34:11;25.60;40.20
32187;DHT22;18686;53.084;8.872;2022-07-29T15:36:40;25.50;40.40
32187;DHT22;18686;53.084;8.872;2022-07-29T15:39:20;25.30;40.50
32187;DHT22;18686;53.084;8.872;2022-07-29T15:41:48;25.30;40.90
32187;DHT22;18686;53.084;8.872;2022-07-29T15:44:16;25.20;41.10
32187;DHT22;18686;53.084;8.872;2022-07-29T15:46:47;25.10;41.40
32187;DHT22;18686;53.084;8.872;2022-07-29T15:49:34;25.00;41.40
32187;DHT22;18686;53.084;8.872;2022-07-29T15:52:16;24.90;41.60
32187;DHT22;18686;53.084;8.872;2022-07-29T15:54:52;24.90;41.90
32187;DHT22;18686;53.084;8.872;2022-07-29T15:57:20;24.80;42.00
32187;DHT22;18686;53.084;8.872;2022-07-29T15:59:49;24.80;42.30
32187;DHT22;18686;53.084;8.872;2022-07-29T16:02:17;24.80;42.30